sensor_id;sensor_type;location;lat;lon;timestamp;P1;durP1;ratioP1;P2;durP2;ratioP2
65879;SDS011;52661;51.364;6.054;2023-02-10T00:00:42;30.93;;;10.60;;
65879;SDS011;52661;51.364;6.054;2023-02-10T00:03:07;28.73;;;12.53;;
65879;SDS011;52661;51.364;6.054;2023-02-10T00:05:32;30.13;;;9.87;;
65879;SDS011;52661;51.364;6.054;2023-02-10T00:07:57;30.10;;;11.63;;
65879;SDS011;52661;51.364;6.054;2023-02-10T00:10:23;33.77;;;10.80;;
65879;SDS011;52661;51.364;6.054;2023-02-10T00:12:48;31.17;;;12.27;;
65879;SDS011;52661;51.364;6.054;2023-02-10T00:15:13;34.15;;;10.73;;
65879;SDS011;52661;51.364;6.054;2023-02-10T00:17:39;29.45;;;12.27;;
65879;SDS011;52661;51.364;6.054;2023-02-10T00:20:04;30.97;;;12.27;;
65879;SDS011;52661;51.364;6.054;2023-02-10T00:22:31;34.17;;;13.77;;
65879;SDS011;52661;51.364;6.054;2023-02-10T00:24:57;34.20;;;12.70;;
65879;SDS011;52661;51.364;6.054;2023-02-10T00:27:22;33.17;;;12.93;;
65879;SDS011;52661;51.364;6.054;2023-02-10T00:29:49;31.48;;;11.60;;
65879;SDS011;52661;51.364;6.054;2023-02-10T00:32:15;32.65;;;12.30;;
65879;SDS011;52661;51.364;6.054;2023-02-10T00:34:42;29.15;;;11.45;;
65879;SDS011;52661;51.364;6.054;2023-02-10T00:37:08;29.35;;;11.45;;
65879;SDS011;52661;51.364;6.054;2023-02-10T00:39:33;28.73;;;11.07;;
65879;SDS011;52661;51.364;6.054;2023-02-10T00:41:59;27.50;;;11.60;;
65879;SDS011;52661;51.364;6.054;2023-02-10T00:44:24;33.40;;;12.17;;
65879;SDS011;52661;51.364;6.054;2023-02-10T00:46:49;32.63;;;11.03;;
65879;SDS011;52661;51.364;6.054;2023-02-10T00:49:14;28.37;;;10.70;;
65879;SDS011;52661;51.364;6.054;2023-02-10T00:51:40;27.15;;;8.82;;
65879;SDS011;52661;51.364;6.054;2023-02-10T00:54:05;31.15;;;11.98;;
65879;SDS011;52661;51.364;6.054;2023-02-10T00:56:30;27.30;;;11.47;;
65879;SDS011;52661;51.364;6.054;2023-02-10T00:58:56;33.90;;;12.80;;
65879;SDS011;52661;51.364;6.054;2023-02-10T01:01:21;29.45;;;10.88;;
65879;SDS011;52661;51.364;6.054;2023-02-10T01:03:46;31.30;;;12.63;;
65879;SDS011;52661;51.364;6.054;2023-02-10T01:06:12;33.57;;;12.17;;
65879;SDS011;52661;51.364;6.054;2023-02-10T01:08:39;28.35;;;10.25;;
65879;SDS011;52661;51.364;6.054;2023-02-10T01:11:06;34.90;;;12.00;;
65879;SDS011;52661;51.364;6.054;2023-02-10T01:13:33;30.23;;;10.85;;
65879;SDS011;52661;51.364;6.054;2023-02-10T01:16:00;30.88;;;12.27;;
65879;SDS011;52661;51.364;6.054;2023-02-10T01:18:25;31.65;;;12.52;;
65879;SDS011;52661;51.364;6.054;2023-02-10T01:20:51;33.22;;;12.07;;
65879;SDS011;52661;51.364;6.054;2023-02-10T01:23:17;34.17;;;11.55;;
65879;SDS011;52661;51.364;6.054;2023-02-10T01:25:42;31.60;;;12.80;;
65879;SDS011;52661;51.364;6.054;2023-02-10T01:28:08;33.80;;;13.15;;
65879;SDS011;52661;51.364;6.054;2023-02-10T01:30:33;31.45;;;11.90;;
65879;SDS011;52661;51.364;6.054;2023-02-10T01:32:59;38.25;;;13.80;;
65879;SDS011;52661;51.364;6.054;2023-02-10T01:35:25;33.20;;;11.60;;
65879;SDS011;52661;51.364;6.054;2023-02-10T01:37:50;30.20;;;12.90;;
65879;SDS011;52661;51.364;6.054;2023-02-10T01:40:17;31.98;;;11.55;;
65879;SDS011;52661;51.364;6.054;2023-02-10T01:42:42;31.73;;;13.30;;
65879;SDS011;52661;51.364;6.054;2023-02-10T01:45:11;36.50;;;13.60;;
65879;SDS011;52661;51.364;6.054;2023-02-10T01:47:45;34.20;;;12.68;;
65879;SDS011;52661;51.364;6.054;2023-02-10T01:50:13;30.10;;;12.73;;
65879;SDS011;52661;51.364;6.054;2023-02-10T01:52:40;39.58;;;14.15;;
65879;SDS011;52661;51.364;6.054;2023-02-10T01:55:07;31.75;;;11.60;;
65879;SDS011;52661;51.364;6.054;2023-02-10T01:57:35;31.05;;;12.60;;
65879;SDS011;52661;51.364;6.054;2023-02-10T02:00:04;34.28;;;13.45;;
65879;SDS011;52661;51.364;6.054;2023-02-10T02:02:30;31.15;;;12.05;;
65879;SDS011;52661;51.364;6.054;2023-02-10T02:04:59;35.28;;;14.05;;
65879;SDS011;52661;51.364;6.054;2023-02-10T02:07:27;32.78;;;12.80;;
65879;SDS011;52661;51.364;6.054;2023-02-10T02:09:55;35.92;;;13.13;;
65879;SDS011;52661;51.364;6.054;2023-02-10T02:17:49;39.10;;;13.05;;
65879;SDS011;52661;51.364;6.054;2023-02-10T02:26:09;35.47;;;14.60;;
65879;SDS011;52661;51.364;6.054;2023-02-10T02:34:33;12.40;;;5.65;;
65879;SDS011;52661;51.364;6.054;2023-02-10T02:39:50;34.05;;;12.25;;
65879;SDS011;52661;51.364;6.054;2023-02-10T03:01:00;30.75;;;12.45;;
65879;SDS011;52661;51.364;6.054;2023-02-10T03:03:32;33.45;;;13.05;;
65879;SDS011;52661;51.364;6.054;2023-02-10T03:05:59;34.85;;;13.40;;
65879;SDS011;52661;51.364;6.054;2023-02-10T03:08:25;32.30;;;11.23;;
65879;SDS011;52661;51.364;6.054;2023-02-10T03:10:51;31.40;;;13.05;;
65879;SDS011;52661;51.364;6.054;2023-02-10T03:13:17;32.17;;;11.87;;
65879;SDS011;52661;51.364;6.054;2023-02-10T03:15:42;35.17;;;11.47;;
65879;SDS011;52661;51.364;6.054;2023-02-10T03:18:08;33.22;;;11.43;;
65879;SDS011;52661;51.364;6.054;2023-02-10T03:20:33;31.08;;;10.40;;
65879;SDS011;52661;51.364;6.054;2023-02-10T03:22:59;22.37;;;7.63;;
65879;SDS011;52661;51.364;6.054;2023-02-10T03:25:24;30.83;;;11.90;;
65879;SDS011;52661;51.364;6.054;2023-02-10T03:27:49;29.37;;;11.73;;
65879;SDS011;52661;51.364;6.054;2023-02-10T03:30:14;29.87;;;11.60;;
65879;SDS011;52661;51.364;6.054;2023-02-10T03:32:40;38.17;;;12.23;;
65879;SDS011;52661;51.364;6.054;2023-02-10T03:35:05;33.73;;;11.77;;
65879;SDS011;52661;51.364;6.054;2023-02-10T03:37:31;32.92;;;11.68;;
65879;SDS011;52661;51.364;6.054;2023-02-10T03:39:57;31.00;;;11.03;;
65879;SDS011;52661;51.364;6.054;2023-02-10T03:42:22;36.33;;;12.05;;
65879;SDS011;52661;51.364;6.054;2023-02-10T03:44:47;32.80;;;11.27;;
65879;SDS011;52661;51.364;6.054;2023-02-10T03:47:13;30.43;;;11.37;;
65879;SDS011;52661;51.364;6.054;2023-02-10T03:49:38;28.35;;;11.38;;
65879;SDS011;52661;51.364;6.054;2023-02-10T03:52:03;34.67;;;13.35;;
65879;SDS011;52661;51.364;6.054;2023-02-10T03:54:29;30.23;;;11.73;;
65879;SDS011;52661;51.364;6.054;2023-02-10T03:56:56;35.38;;;11.55;;
65879;SDS011;52661;51.364;6.054;2023-02-10T03:59:21;26.40;;;10.93;;
65879;SDS011;52661;51.364;6.054;2023-02-10T04:01:46;27.40;;;10.23;;
65879;SDS011;52661;51.364;6.054;2023-02-10T04:04:12;33.63;;;13.65;;
65879;SDS011;52661;51.364;6.054;2023-02-10T04:06:37;31.70;;;11.10;;
65879;SDS011;52661;51.364;6.054;2023-02-10T04:09:03;31.20;;;10.27;;
65879;SDS011;52661;51.364;6.054;2023-02-10T04:11:28;35.47;;;11.27;;
65879;SDS011;52661;51.364;6.054;2023-02-10T04:13:53;30.50;;;11.20;;
65879;SDS011;52661;51.364;6.054;2023-02-10T04:16:19;33.63;;;10.90;;
65879;SDS011;52661;51.364;6.054;2023-02-10T04:18:46;31.85;;;12.15;;
65879;SDS011;52661;51.364;6.054;2023-02-10T04:21:12;31.97;;;10.73;;
65879;SDS011;52661;51.364;6.054;2023-02-10T04:23:37;29.98;;;12.07;;
65879;SDS011;52661;51.364;6.054;2023-02-10T04:26:03;35.58;;;12.60;;
65879;SDS011;52661;51.364;6.054;2023-02-10T04:28:29;32.08;;;12.00;;
65879;SDS011;52661;51.364;6.054;2023-02-10T04:30:55;31.37;;;13.33;;
65879;SDS011;52661;51.364;6.054;2023-02-10T04:33:22;33.65;;;11.52;;
65879;SDS011;52661;51.364;6.054;2023-02-10T04:35:50;34.35;;;12.43;;
65879;SDS011;52661;51.364;6.054;2023-02-10T04:38:16;35.03;;;11.43;;
65879;SDS011;52661;51.364;6.054;2023-02-10T04:40:41;39.58;;;12.68;;
65879;SDS011;52661;51.364;6.054;2023-02-10T04:43:07;25.95;;;8.25;;
65879;SDS011;52661;51.364;6.054;2023-02-10T04:45:33;34.80;;;11.40;;
65879;SDS011;52661;51.364;6.054;2023-02-10T04:47:58;30.17;;;10.30;;
65879;SDS011;52661;51.364;6.054;2023-02-10T04:50:24;31.92;;;11.45;;
65879;SDS011;52661;51.364;6.054;2023-02-10T04:52:50;28.98;;;11.25;;
65879;SDS011;52661;51.364;6.054;2023-02-10T04:55:15;32.17;;;11.43;;
65879;SDS011;52661;51.364;6.054;2023-02-10T04:57:41;35.83;;;11.57;;
65879;SDS011;52661;51.364;6.054;2023-02-10T05:00:06;27.73;;;10.15;;
65879;SDS011;52661;51.364;6.054;2023-02-10T05:02:32;31.35;;;10.30;;
65879;SDS011;52661;51.364;6.054;2023-02-10T05:04:57;31.97;;;10.40;;
65879;SDS011;52661;51.364;6.054;2023-02-10T05:07:23;35.27;;;12.50;;
65879;SDS011;52661;51.364;6.054;2023-02-10T05:09:48;24.13;;;9.13;;
65879;SDS011;52661;51.364;6.054;2023-02-10T05:12:14;33.15;;;12.18;;
65879;SDS011;52661;51.364;6.054;2023-02-10T05:14:39;29.20;;;10.18;;
65879;SDS011;52661;51.364;6.054;2023-02-10T05:17:05;33.57;;;12.20;;
65879;SDS011;52661;51.364;6.054;2023-02-10T05:19:30;30.55;;;11.77;;
65879;SDS011;52661;51.364;6.054;2023-02-10T05:21:55;32.47;;;11.70;;
65879;SDS011;52661;51.364;6.054;2023-02-10T05:24:21;35.13;;;11.67;;
65879;SDS011;52661;51.364;6.054;2023-02-10T05:26:47;29.75;;;10.43;;
65879;SDS011;52661;51.364;6.054;2023-02-10T05:29:12;31.90;;;12.60;;
65879;SDS011;52661;51.364;6.054;2023-02-10T05:31:37;32.40;;;12.17;;
65879;SDS011;52661;51.364;6.054;2023-02-10T05:34:03;36.47;;;12.60;;
65879;SDS011;52661;51.364;6.054;2023-02-10T05:36:28;34.22;;;12.05;;
65879;SDS011;52661;51.364;6.054;2023-02-10T05:38:53;34.83;;;11.93;;
65879;SDS011;52661;51.364;6.054;2023-02-10T05:41:37;30.58;;;12.50;;
65879;SDS011;52661;51.364;6.054;2023-02-10T05:44:03;36.83;;;12.63;;
65879;SDS011;52661;51.364;6.054;2023-02-10T05:46:28;32.88;;;10.68;;
65879;SDS011;52661;51.364;6.054;2023-02-10T05:48:54;28.25;;;11.82;;
65879;SDS011;52661;51.364;6.054;2023-02-10T05:51:19;29.97;;;11.17;;
65879;SDS011;52661;51.364;6.054;2023-02-10T05:53:44;30.80;;;11.95;;
65879;SDS011;52661;51.364;6.054;2023-02-10T05:56:10;37.10;;;13.13;;
65879;SDS011;52661;51.364;6.054;2023-02-10T05:58:35;32.37;;;11.80;;
65879;SDS011;52661;51.364;6.054;2023-02-10T06:01:00;34.73;;;12.13;;
65879;SDS011;52661;51.364;6.054;2023-02-10T06:03:31;33.65;;;12.82;;
65879;SDS011;52661;51.364;6.054;2023-02-10T06:05:56;30.30;;;11.03;;
65879;SDS011;52661;51.364;6.054;2023-02-10T06:08:21;33.17;;;12.23;;
65879;SDS011;52661;51.364;6.054;2023-02-10T06:10:46;32.27;;;11.83;;
65879;SDS011;52661;51.364;6.054;2023-02-10T06:13:12;34.27;;;12.20;;
65879;SDS011;52661;51.364;6.054;2023-02-10T06:15:37;36.77;;;12.67;;
65879;SDS011;52661;51.364;6.054;2023-02-10T06:18:02;31.33;;;11.67;;
65879;SDS011;52661;51.364;6.054;2023-02-10T06:20:28;30.13;;;11.57;;
65879;SDS011;52661;51.364;6.054;2023-02-10T06:22:53;31.57;;;10.97;;
65879;SDS011;52661;51.364;6.054;2023-02-10T06:25:18;32.20;;;12.23;;
65879;SDS011;52661;51.364;6.054;2023-02-10T06:27:44;30.43;;;11.43;;
65879;SDS011;52661;51.364;6.054;2023-02-10T06:30:09;33.00;;;12.17;;
65879;SDS011;52661;51.364;6.054;2023-02-10T06:32:35;28.88;;;10.70;;
65879;SDS011;52661;51.364;6.054;2023-02-10T06:35:00;28.27;;;10.90;;
65879;SDS011;52661;51.364;6.054;2023-02-10T06:37:26;33.57;;;10.77;;
65879;SDS011;52661;51.364;6.054;2023-02-10T06:39:51;28.60;;;10.97;;
65879;SDS011;52661;51.364;6.054;2023-02-10T06:42:17;33.33;;;11.35;;
65879;SDS011;52661;51.364;6.054;2023-02-10T06:44:42;33.03;;;11.57;;
65879;SDS011;52661;51.364;6.054;2023-02-10T06:47:07;36.20;;;12.77;;
65879;SDS011;52661;51.364;6.054;2023-02-10T06:49:32;30.07;;;10.63;;
65879;SDS011;52661;51.364;6.054;2023-02-10T06:51:58;32.40;;;13.05;;
65879;SDS011;52661;51.364;6.054;2023-02-10T06:54:23;29.20;;;10.23;;
65879;SDS011;52661;51.364;6.054;2023-02-10T06:56:49;29.10;;;10.70;;
65879;SDS011;52661;51.364;6.054;2023-02-10T06:59:14;27.45;;;11.52;;
65879;SDS011;52661;51.364;6.054;2023-02-10T07:01:40;31.25;;;10.80;;
65879;SDS011;52661;51.364;6.054;2023-02-10T07:04:06;23.92;;;7.10;;
65879;SDS011;52661;51.364;6.054;2023-02-10T07:06:31;32.92;;;12.85;;
65879;SDS011;52661;51.364;6.054;2023-02-10T07:08:57;27.03;;;10.10;;
65879;SDS011;52661;51.364;6.054;2023-02-10T07:11:22;32.08;;;11.18;;
65879;SDS011;52661;51.364;6.054;2023-02-10T07:13:47;32.77;;;11.53;;
65879;SDS011;52661;51.364;6.054;2023-02-10T07:16:13;27.20;;;9.83;;
65879;SDS011;52661;51.364;6.054;2023-02-10T07:18:40;17.98;;;6.03;;
65879;SDS011;52661;51.364;6.054;2023-02-10T07:21:06;28.80;;;10.07;;
65879;SDS011;52661;51.364;6.054;2023-02-10T07:23:31;40.90;;;13.50;;
65879;SDS011;52661;51.364;6.054;2023-02-10T07:25:56;41.73;;;12.20;;
65879;SDS011;52661;51.364;6.054;2023-02-10T07:28:22;34.50;;;10.43;;
65879;SDS011;52661;51.364;6.054;2023-02-10T07:30:47;32.63;;;12.27;;
65879;SDS011;52661;51.364;6.054;2023-02-10T07:33:12;32.95;;;10.93;;
65879;SDS011;52661;51.364;6.054;2023-02-10T07:35:38;41.47;;;12.00;;
65879;SDS011;52661;51.364;6.054;2023-02-10T07:38:03;35.30;;;11.60;;
65879;SDS011;52661;51.364;6.054;2023-02-10T07:40:28;36.17;;;11.27;;
65879;SDS011;52661;51.364;6.054;2023-02-10T07:42:55;40.33;;;11.20;;
65879;SDS011;52661;51.364;6.054;2023-02-10T07:45:21;29.25;;;10.02;;
65879;SDS011;52661;51.364;6.054;2023-02-10T07:47:46;42.92;;;13.70;;
65879;SDS011;52661;51.364;6.054;2023-02-10T07:50:11;45.10;;;10.43;;
65879;SDS011;52661;51.364;6.054;2023-02-10T07:52:37;12.53;;;4.67;;
65879;SDS011;52661;51.364;6.054;2023-02-10T07:55:02;40.10;;;11.60;;
65879;SDS011;52661;51.364;6.054;2023-02-10T07:57:29;36.65;;;13.63;;
65879;SDS011;52661;51.364;6.054;2023-02-10T07:59:54;25.55;;;7.57;;
65879;SDS011;52661;51.364;6.054;2023-02-10T08:02:20;31.55;;;9.90;;
65879;SDS011;52661;51.364;6.054;2023-02-10T08:04:45;47.47;;;16.03;;
65879;SDS011;52661;51.364;6.054;2023-02-10T08:07:10;41.90;;;13.15;;
65879;SDS011;52661;51.364;6.054;2023-02-10T08:09:36;36.17;;;11.52;;
65879;SDS011;52661;51.364;6.054;2023-02-10T08:12:02;50.70;;;16.50;;
65879;SDS011;52661;51.364;6.054;2023-02-10T08:14:28;41.70;;;13.10;;
65879;SDS011;52661;51.364;6.054;2023-02-10T08:16:53;35.33;;;10.23;;
65879;SDS011;52661;51.364;6.054;2023-02-10T08:19:18;49.63;;;13.63;;
65879;SDS011;52661;51.364;6.054;2023-02-10T08:21:44;47.63;;;13.57;;
65879;SDS011;52661;51.364;6.054;2023-02-10T08:24:09;44.97;;;11.90;;
65879;SDS011;52661;51.364;6.054;2023-02-10T08:26:34;51.10;;;13.37;;
65879;SDS011;52661;51.364;6.054;2023-02-10T08:29:00;48.30;;;13.67;;
65879;SDS011;52661;51.364;6.054;2023-02-10T08:31:26;50.90;;;13.13;;
65879;SDS011;52661;51.364;6.054;2023-02-10T08:33:52;52.92;;;14.98;;
65879;SDS011;52661;51.364;6.054;2023-02-10T08:36:18;28.98;;;8.63;;
65879;SDS011;52661;51.364;6.054;2023-02-10T08:38:45;29.15;;;9.18;;
65879;SDS011;52661;51.364;6.054;2023-02-10T08:41:11;46.33;;;11.82;;
65879;SDS011;52661;51.364;6.054;2023-02-10T08:43:37;35.38;;;10.65;;
65879;SDS011;52661;51.364;6.054;2023-02-10T08:46:03;36.97;;;11.48;;
65879;SDS011;52661;51.364;6.054;2023-02-10T08:48:29;48.00;;;13.63;;
65879;SDS011;52661;51.364;6.054;2023-02-10T08:50:55;45.72;;;11.65;;
65879;SDS011;52661;51.364;6.054;2023-02-10T08:53:21;50.25;;;14.90;;
65879;SDS011;52661;51.364;6.054;2023-02-10T08:58:21;47.83;;;12.32;;
65879;SDS011;52661;51.364;6.054;2023-02-10T09:00:46;31.55;;;10.63;;
65879;SDS011;52661;51.364;6.054;2023-02-10T09:03:12;47.30;;;11.90;;
65879;SDS011;52661;51.364;6.054;2023-02-10T09:05:37;53.67;;;14.80;;
65879;SDS011;52661;51.364;6.054;2023-02-10T09:08:02;44.60;;;13.73;;
65879;SDS011;52661;51.364;6.054;2023-02-10T09:10:28;37.80;;;12.88;;
65879;SDS011;52661;51.364;6.054;2023-02-10T09:12:54;41.65;;;13.50;;
65879;SDS011;52661;51.364;6.054;2023-02-10T09:15:19;38.07;;;11.47;;
65879;SDS011;52661;51.364;6.054;2023-02-10T09:17:45;44.90;;;14.17;;
65879;SDS011;52661;51.364;6.054;2023-02-10T09:20:10;36.80;;;13.07;;
65879;SDS011;52661;51.364;6.054;2023-02-10T09:22:36;39.75;;;13.38;;
65879;SDS011;52661;51.364;6.054;2023-02-10T09:25:02;29.52;;;9.77;;
65879;SDS011;52661;51.364;6.054;2023-02-10T09:27:27;43.83;;;14.35;;
65879;SDS011;52661;51.364;6.054;2023-02-10T09:29:53;37.85;;;13.57;;
65879;SDS011;52661;51.364;6.054;2023-02-10T09:32:18;38.70;;;14.03;;
65879;SDS011;52661;51.364;6.054;2023-02-10T09:34:44;31.27;;;11.05;;
65879;SDS011;52661;51.364;6.054;2023-02-10T09:37:10;42.78;;;14.27;;
65879;SDS011;52661;51.364;6.054;2023-02-10T09:39:35;36.03;;;13.60;;
65879;SDS011;52661;51.364;6.054;2023-02-10T09:42:08;39.20;;;15.50;;
65879;SDS011;52661;51.364;6.054;2023-02-10T09:44:41;38.00;;;12.50;;
65879;SDS011;52661;51.364;6.054;2023-02-10T09:47:27;36.65;;;12.38;;
65879;SDS011;52661;51.364;6.054;2023-02-10T09:55:41;30.63;;;11.85;;
65879;SDS011;52661;51.364;6.054;2023-02-10T09:58:13;37.60;;;14.38;;
65879;SDS011;52661;51.364;6.054;2023-02-10T10:00:43;36.97;;;12.32;;
65879;SDS011;52661;51.364;6.054;2023-02-10T10:03:12;43.45;;;14.25;;
65879;SDS011;52661;51.364;6.054;2023-02-10T10:06:12;45.30;;;15.35;;
65879;SDS011;52661;51.364;6.054;2023-02-10T10:08:54;23.48;;;8.30;;
65879;SDS011;52661;51.364;6.054;2023-02-10T10:11:38;35.60;;;13.95;;
65879;SDS011;52661;51.364;6.054;2023-02-10T10:14:13;46.67;;;15.27;;
65879;SDS011;52661;51.364;6.054;2023-02-10T10:17:01;33.08;;;12.85;;
65879;SDS011;52661;51.364;6.054;2023-02-10T10:19:32;30.27;;;11.40;;
65879;SDS011;52661;51.364;6.054;2023-02-10T10:27:55;47.30;;;15.68;;
65879;SDS011;52661;51.364;6.054;2023-02-10T10:30:29;37.85;;;14.52;;
65879;SDS011;52661;51.364;6.054;2023-02-10T10:36:04;45.47;;;16.48;;
65879;SDS011;52661;51.364;6.054;2023-02-10T10:38:37;28.85;;;10.70;;
65879;SDS011;52661;51.364;6.054;2023-02-10T10:41:11;34.78;;;13.15;;
65879;SDS011;52661;51.364;6.054;2023-02-10T10:43:42;35.10;;;14.13;;
65879;SDS011;52661;51.364;6.054;2023-02-10T10:46:13;41.85;;;14.90;;
65879;SDS011;52661;51.364;6.054;2023-02-10T10:48:46;40.55;;;14.10;;
65879;SDS011;52661;51.364;6.054;2023-02-10T10:51:12;37.65;;;13.35;;
65879;SDS011;52661;51.364;6.054;2023-02-10T10:53:43;40.83;;;14.85;;
65879;SDS011;52661;51.364;6.054;2023-02-10T10:56:13;30.90;;;11.95;;
65879;SDS011;52661;51.364;6.054;2023-02-10T10:58:56;29.42;;;11.30;;
65879;SDS011;52661;51.364;6.054;2023-02-10T11:01:35;51.50;;;16.38;;
65879;SDS011;52661;51.364;6.054;2023-02-10T11:04:06;40.28;;;15.45;;
65879;SDS011;52661;51.364;6.054;2023-02-10T11:06:37;41.25;;;15.00;;
65879;SDS011;52661;51.364;6.054;2023-02-10T11:09:05;48.22;;;16.15;;
65879;SDS011;52661;51.364;6.054;2023-02-10T11:11:41;43.53;;;15.65;;
65879;SDS011;52661;51.364;6.054;2023-02-10T11:14:26;40.75;;;14.95;;
65879;SDS011;52661;51.364;6.054;2023-02-10T11:16:54;49.10;;;15.63;;
65879;SDS011;52661;51.364;6.054;2023-02-10T11:19:30;42.25;;;14.55;;
65879;SDS011;52661;51.364;6.054;2023-02-10T11:21:57;38.70;;;14.40;;
65879;SDS011;52661;51.364;6.054;2023-02-10T11:24:27;35.13;;;12.65;;
65879;SDS011;52661;51.364;6.054;2023-02-10T11:29:22;44.67;;;14.85;;
65879;SDS011;52661;51.364;6.054;2023-02-10T11:31:49;35.60;;;13.85;;
65879;SDS011;52661;51.364;6.054;2023-02-10T11:34:30;40.83;;;14.68;;
65879;SDS011;52661;51.364;6.054;2023-02-10T11:36:59;33.75;;;12.23;;
65879;SDS011;52661;51.364;6.054;2023-02-10T11:39:36;31.63;;;12.18;;
65879;SDS011;52661;51.364;6.054;2023-02-10T11:44:53;40.47;;;14.60;;
65879;SDS011;52661;51.364;6.054;2023-02-10T11:47:26;42.88;;;14.73;;
65879;SDS011;52661;51.364;6.054;2023-02-10T11:49:54;37.22;;;13.55;;
65879;SDS011;52661;51.364;6.054;2023-02-10T11:52:21;34.63;;;13.33;;
65879;SDS011;52661;51.364;6.054;2023-02-10T11:54:50;37.97;;;13.35;;
65879;SDS011;52661;51.364;6.054;2023-02-10T11:57:18;38.85;;;14.18;;
65879;SDS011;52661;51.364;6.054;2023-02-10T12:03:13;31.92;;;12.50;;
65879;SDS011;52661;51.364;6.054;2023-02-10T12:17:09;44.75;;;16.20;;
65879;SDS011;52661;51.364;6.054;2023-02-10T12:34:04;34.58;;;13.05;;
65879;SDS011;52661;51.364;6.054;2023-02-10T12:36:55;36.10;;;12.75;;
65879;SDS011;52661;51.364;6.054;2023-02-10T12:51:04;27.25;;;8.77;;
65879;SDS011;52661;51.364;6.054;2023-02-10T12:53:35;32.67;;;11.57;;
65879;SDS011;52661;51.364;6.054;2023-02-10T12:56:07;27.58;;;11.43;;
65879;SDS011;52661;51.364;6.054;2023-02-10T12:58:43;34.28;;;13.32;;
65879;SDS011;52661;51.364;6.054;2023-02-10T13:01:18;28.20;;;11.13;;
65879;SDS011;52661;51.364;6.054;2023-02-10T13:04:07;28.45;;;12.23;;
65879;SDS011;52661;51.364;6.054;2023-02-10T13:07:02;33.97;;;12.75;;
65879;SDS011;52661;51.364;6.054;2023-02-10T13:09:50;30.63;;;12.50;;
65879;SDS011;52661;51.364;6.054;2023-02-10T13:12:28;32.92;;;11.77;;
65879;SDS011;52661;51.364;6.054;2023-02-10T13:15:21;30.13;;;12.05;;
65879;SDS011;52661;51.364;6.054;2023-02-10T13:17:50;22.15;;;9.65;;
65879;SDS011;52661;51.364;6.054;2023-02-10T13:25:43;24.17;;;9.90;;
65879;SDS011;52661;51.364;6.054;2023-02-10T13:31:21;24.77;;;9.35;;
65879;SDS011;52661;51.364;6.054;2023-02-10T13:34:00;17.63;;;8.13;;
65879;SDS011;52661;51.364;6.054;2023-02-10T13:36:29;21.05;;;7.97;;
65879;SDS011;52661;51.364;6.054;2023-02-10T13:39:00;26.90;;;11.55;;
65879;SDS011;52661;51.364;6.054;2023-02-10T13:41:30;27.45;;;10.68;;
65879;SDS011;52661;51.364;6.054;2023-02-10T13:44:22;26.98;;;10.60;;
65879;SDS011;52661;51.364;6.054;2023-02-10T13:46:53;25.35;;;8.88;;
65879;SDS011;52661;51.364;6.054;2023-02-10T13:49:22;23.33;;;7.93;;
65879;SDS011;52661;51.364;6.054;2023-02-10T13:51:48;18.42;;;8.07;;
65879;SDS011;52661;51.364;6.054;2023-02-10T13:54:29;27.10;;;11.48;;
65879;SDS011;52661;51.364;6.054;2023-02-10T13:56:57;24.88;;;9.77;;
65879;SDS011;52661;51.364;6.054;2023-02-10T13:59:25;24.67;;;10.27;;
65879;SDS011;52661;51.364;6.054;2023-02-10T14:02:09;24.65;;;11.02;;
65879;SDS011;52661;51.364;6.054;2023-02-10T14:04:46;21.35;;;8.25;;
65879;SDS011;52661;51.364;6.054;2023-02-10T14:07:15;25.42;;;11.00;;
65879;SDS011;52661;51.364;6.054;2023-02-10T14:10:00;13.15;;;5.95;;
65879;SDS011;52661;51.364;6.054;2023-02-10T14:12:28;24.33;;;10.25;;
65879;SDS011;52661;51.364;6.054;2023-02-10T14:14:54;20.30;;;9.52;;
65879;SDS011;52661;51.364;6.054;2023-02-10T14:17:23;24.27;;;8.07;;
65879;SDS011;52661;51.364;6.054;2023-02-10T14:19:54;21.25;;;9.13;;
65879;SDS011;52661;51.364;6.054;2023-02-10T14:22:25;22.40;;;8.93;;
65879;SDS011;52661;51.364;6.054;2023-02-10T14:24:57;22.38;;;9.13;;
65879;SDS011;52661;51.364;6.054;2023-02-10T14:27:27;15.13;;;7.43;;
65879;SDS011;52661;51.364;6.054;2023-02-10T14:29:56;20.23;;;8.27;;
65879;SDS011;52661;51.364;6.054;2023-02-10T14:32:26;26.25;;;8.55;;
65879;SDS011;52661;51.364;6.054;2023-02-10T14:35:15;22.15;;;7.82;;
65879;SDS011;52661;51.364;6.054;2023-02-10T14:37:53;21.27;;;8.48;;
65879;SDS011;52661;51.364;6.054;2023-02-10T14:40:21;21.08;;;7.72;;
65879;SDS011;52661;51.364;6.054;2023-02-10T14:45:31;19.30;;;6.93;;
65879;SDS011;52661;51.364;6.054;2023-02-10T14:48:01;21.52;;;7.32;;
65879;SDS011;52661;51.364;6.054;2023-02-10T14:50:34;22.42;;;7.90;;
65879;SDS011;52661;51.364;6.054;2023-02-10T14:53:02;17.33;;;7.20;;
65879;SDS011;52661;51.364;6.054;2023-02-10T15:00:32;23.53;;;8.17;;
65879;SDS011;52661;51.364;6.054;2023-02-10T15:02:58;25.58;;;8.80;;
65879;SDS011;52661;51.364;6.054;2023-02-10T15:05:26;23.08;;;8.93;;
65879;SDS011;52661;51.364;6.054;2023-02-10T15:07:57;22.60;;;8.93;;
65879;SDS011;52661;51.364;6.054;2023-02-10T15:10:26;21.85;;;8.32;;
65879;SDS011;52661;51.364;6.054;2023-02-10T15:12:56;26.90;;;9.63;;
65879;SDS011;52661;51.364;6.054;2023-02-10T15:18:00;22.23;;;8.30;;
65879;SDS011;52661;51.364;6.054;2023-02-10T15:20:32;25.70;;;10.45;;
65879;SDS011;52661;51.364;6.054;2023-02-10T15:28:18;19.83;;;8.07;;
65879;SDS011;52661;51.364;6.054;2023-02-10T15:33:29;24.73;;;7.75;;
65879;SDS011;52661;51.364;6.054;2023-02-10T15:36:03;20.30;;;8.25;;
65879;SDS011;52661;51.364;6.054;2023-02-10T15:38:51;21.17;;;8.07;;
65879;SDS011;52661;51.364;6.054;2023-02-10T15:43:48;17.17;;;5.50;;
65879;SDS011;52661;51.364;6.054;2023-02-10T15:46:18;18.58;;;6.68;;
65879;SDS011;52661;51.364;6.054;2023-02-10T15:48:46;20.15;;;6.35;;
65879;SDS011;52661;51.364;6.054;2023-02-10T15:51:20;25.05;;;7.90;;
65879;SDS011;52661;51.364;6.054;2023-02-10T15:53:48;19.92;;;7.40;;
65879;SDS011;52661;51.364;6.054;2023-02-10T15:56:14;18.38;;;6.53;;
65879;SDS011;52661;51.364;6.054;2023-02-10T15:58:39;13.73;;;5.03;;
65879;SDS011;52661;51.364;6.054;2023-02-10T16:01:04;18.37;;;5.90;;
65879;SDS011;52661;51.364;6.054;2023-02-10T16:03:30;22.93;;;7.57;;
65879;SDS011;52661;51.364;6.054;2023-02-10T16:05:55;18.37;;;6.77;;
65879;SDS011;52661;51.364;6.054;2023-02-10T16:08:26;17.55;;;5.90;;
65879;SDS011;52661;51.364;6.054;2023-02-10T16:10:52;21.85;;;7.85;;
65879;SDS011;52661;51.364;6.054;2023-02-10T16:13:18;20.00;;;7.65;;
65879;SDS011;52661;51.364;6.054;2023-02-10T16:15:44;27.03;;;9.47;;
65879;SDS011;52661;51.364;6.054;2023-02-10T16:18:12;21.05;;;8.60;;
65879;SDS011;52661;51.364;6.054;2023-02-10T16:20:40;14.90;;;5.30;;
65879;SDS011;52661;51.364;6.054;2023-02-10T16:23:09;21.40;;;6.75;;
65879;SDS011;52661;51.364;6.054;2023-02-10T16:25:39;24.50;;;8.65;;
65879;SDS011;52661;51.364;6.054;2023-02-10T16:28:05;25.42;;;7.82;;
65879;SDS011;52661;51.364;6.054;2023-02-10T16:30:31;25.33;;;8.80;;
65879;SDS011;52661;51.364;6.054;2023-02-10T16:32:58;26.42;;;8.90;;
65879;SDS011;52661;51.364;6.054;2023-02-10T16:35:24;23.98;;;9.23;;
65879;SDS011;52661;51.364;6.054;2023-02-10T16:37:50;28.25;;;9.32;;
65879;SDS011;52661;51.364;6.054;2023-02-10T16:40:22;25.75;;;8.95;;